Willington, Connecticut
Current Conditions -  °F | °C
As of 7:52 AM on Friday 24 Oct 2014 (Local Time) from KIJD Reporting Station
Light Rain Light Rain  
Wind Chill: 46°   Ceiling: 1500
Heat Index: 49°   Visibility: 10mi
Dew Point: 45°   Wind: 7mph
Humidity: 86%   Direction: 320°NW
Pressure: 29.74"   Gusts: NA
Location:  41.88°N, 72.27°W
Report Text: KIJD 241152Z AUTO 32006KT 10SM -RA BKN015 BKN055 OVC070 09/07 A2974 RMK AO2 SLP072 P0005 60005 70010 T00940072 10106 20089 53014
Loading
Personal Weather Stations






























Interactive Weather Map
Tropical Storm Tracking
New forecast layout! Learn more

10-Day Weather Forecast

Advertisements
Track Severe Weather on mobile